Time;durP1;ratioP1;P1;durP2;ratioP2;P2;SDS_P1;SDS_P2;PMS_P1;PMS_P2;Temp;Humidity;BMP_temperature;BMP_pressure;BME280_temperature;BME280_humidity;BME280_pressure;Samples;Min_cycle;Max_cycle;Signal;HPM_P1;HPM_P2
2022/02/04 00:24:32;;;;;;;;;;;;;;;14.48;46.87;101196.78;4963650;28;19918;-81
2022/02/04 00:27:21;;;;;;;;;;;;;;;14.47;45.84;101188.91;4962945;28;19915;-82
2022/02/04 00:30:14;;;;;;;;;;;;;;;14.37;46.47;101184.63;4965976;28;19922;-81
2022/02/04 00:33:01;;;;;;;;;;;;;;;14.37;46.80;101184.63;4964264;28;19918;-81
2022/02/04 00:35:54;;;;;;;;;;;;;;;14.36;47.35;101184.91;4962197;28;20374;-81
2022/02/04 00:38:43;;;;;;;;;;;;;;;14.35;46.78;101178.63;4966076;28;20005;-81
2022/02/04 00:41:33;;;;;;;;;;;;;;;14.37;47.16;101192.00;4963009;28;19914;-81
2022/02/04 00:44:25;;;;;;;;;;;;;;;14.35;47.39;101195.03;4961775;28;19918;-81
2022/02/04 00:47:17;;;;;;;;;;;;;;;14.40;47.76;101194.09;4965288;28;19914;-81
2022/02/04 00:50:13;;;;;;;;;;;;;;;14.38;48.35;101191.66;4962406;28;19914;-81
2022/02/04 00:53:28;;;;;;;;;;;;;;;14.41;48.18;101195.69;4960957;28;20315;-80
2022/02/04 01:26:26;;;;;;;;;;;;;;;14.48;48.30;101180.34;4961101;28;19930;-81
2022/02/04 01:29:11;;;;;;;;;;;;;;;14.47;48.38;101181.50;4963599;28;19914;-81
2022/02/04 01:31:56;;;;;;;;;;;;;;;14.47;48.90;101180.69;4961364;28;19915;-81
2022/02/04 01:34:41;;;;;;;;;;;;;;;14.47;49.11;101178.78;4959651;28;19918;-81
2022/02/04 01:37:26;;;;;;;;;;;;;;;14.42;48.79;101176.22;4963481;28;19919;-81
2022/02/04 01:40:11;;;;;;;;;;;;;;;14.40;48.59;101162.06;4962599;28;19918;-81
2022/02/04 01:42:55;;;;;;;;;;;;;;;14.45;49.05;101167.34;4959529;28;19915;-81
2022/02/04 01:45:40;;;;;;;;;;;;;;;14.42;48.61;101167.22;4962098;28;19919;-81
2022/02/04 01:48:24;;;;;;;;;;;;;;;14.46;49.26;101160.75;4962488;28;19914;-81
2022/02/04 01:51:13;;;;;;;;;;;;;;;14.47;49.71;101156.06;4960207;28;19914;-82
2022/02/04 01:53:57;;;;;;;;;;;;;;;14.49;50.19;101153.78;4963212;28;19914;-81
2022/02/04 01:56:42;;;;;;;;;;;;;;;14.52;50.27;101150.41;4962460;28;19914;-81
2022/02/04 01:59:27;;;;;;;;;;;;;;;14.47;50.30;101145.13;4960680;28;19914;-81
2022/02/04 02:02:12;;;;;;;;;;;;;;;14.52;50.56;101136.72;4964266;28;19922;-81
2022/02/04 02:04:57;;;;;;;;;;;;;;;14.52;50.49;101131.25;4943866;29;19927;-81
2022/02/04 02:07:46;;;;;;;;;;;;;;;14.58;50.50;101134.59;4942465;29;20388;-80
2022/02/04 02:10:30;;;;;;;;;;;;;;;14.63;50.51;101126.19;4951988;29;20598;-82
2022/02/04 02:16:35;;;;;;;;;;;;;;;14.60;50.27;101113.16;4958879;28;19915;-81
2022/02/04 02:43:51;;;;;;;;;;;;;;;14.51;48.42;101083.94;4941098;29;19919;-81
2022/02/04 02:52:41;;;;;;;;;;;;;;;14.31;46.83;101065.53;4966919;28;19914;-81
2022/02/04 03:03:37;;;;;;;;;;;;;;;14.19;47.23;101056.41;4964311;28;19914;-82
2022/02/04 03:06:22;;;;;;;;;;;;;;;14.15;47.75;101056.28;4963478;28;19918;-81
2022/02/04 03:09:06;;;;;;;;;;;;;;;14.21;49.58;101071.38;4966112;28;19933;-81
2022/02/04 03:11:51;;;;;;;;;;;;;;;14.25;49.72;101064.09;4964434;28;19918;-81
2022/02/04 03:14:35;;;;;;;;;;;;;;;14.29;50.46;101062.28;4962778;28;19914;-81
2022/02/04 03:17:20;;;;;;;;;;;;;;;14.37;50.53;101056.03;4965019;28;19914;-81
2022/02/04 03:20:08;;;;;;;;;;;;;;;14.40;50.72;101057.28;4964589;28;19914;-81
2022/02/04 03:22:54;;;;;;;;;;;;;;;14.50;50.50;101048.66;4962764;28;19914;-81
2022/02/04 03:25:43;;;;;;;;;;;;;;;14.52;50.36;101058.16;4964739;28;19918;-81
2022/02/04 03:28:29;;;;;;;;;;;;;;;14.51;50.42;101058.50;4963822;28;19914;-82
2022/02/04 03:31:14;;;;;;;;;;;;;;;14.53;50.28;101045.25;4962965;28;20295;-81
2022/02/04 03:33:59;;;;;;;;;;;;;;;14.60;50.26;101051.00;4966340;28;19914;-81
2022/02/04 03:36:44;;;;;;;;;;;;;;;14.54;50.32;101050.41;4964687;28;19915;-81
2022/02/04 03:39:32;;;;;;;;;;;;;;;14.54;50.30;101044.94;4962252;28;19914;-81
2022/02/04 03:42:16;;;;;;;;;;;;;;;14.51;50.55;101042.88;4966212;28;19914;-81
2022/02/04 03:45:01;;;;;;;;;;;;;;;14.53;50.44;101042.53;4964707;28;19923;-81
2022/02/04 03:47:45;;;;;;;;;;;;;;;14.53;50.34;101037.84;4962840;28;19915;-81
2022/02/04 03:50:30;;;;;;;;;;;;;;;14.53;50.51;101035.13;4966653;28;19914;-81
2022/02/04 03:53:15;;;;;;;;;;;;;;;14.51;50.56;101033.88;4964671;28;19914;-81
2022/02/04 03:56:00;;;;;;;;;;;;;;;14.51;50.45;101031.94;4962316;28;19915;-81
2022/02/04 03:58:45;;;;;;;;;;;;;;;14.47;50.46;101031.00;4966281;28;19922;-81
2022/02/04 04:01:29;;;;;;;;;;;;;;;14.46;50.65;101029.38;4965244;28;19914;-81
2022/02/04 04:04:13;;;;;;;;;;;;;;;14.46;50.58;101023.13;4962067;28;19915;-81
2022/02/04 04:06:59;;;;;;;;;;;;;;;14.46;50.70;101025.84;4966597;28;19918;-81
2022/02/04 04:09:50;;;;;;;;;;;;;;;14.46;50.50;101029.38;4964788;28;20383;-81
2022/02/04 04:12:34;;;;;;;;;;;;;;;14.46;50.62;101023.13;4962729;28;19914;-81
2022/02/04 04:15:19;;;;;;;;;;;;;;;14.47;50.65;101020.06;4964859;28;19915;-82
2022/02/04 04:18:03;;;;;;;;;;;;;;;14.48;50.61;101012.63;4962764;28;19914;-81
2022/02/04 04:20:48;;;;;;;;;;;;;;;14.46;50.60;101009.44;4963393;28;19914;-81
2022/02/04 04:23:33;;;;;;;;;;;;;;;14.46;50.63;101012.97;4967842;28;20290;-81
2022/02/04 04:26:17;;;;;;;;;;;;;;;14.44;50.62;101017.16;4962031;28;19918;-81
2022/02/04 04:29:02;;;;;;;;;;;;;;;14.41;48.78;101015.09;4963214;28;19915;-81
2022/02/04 04:31:46;;;;;;;;;;;;;;;14.35;48.07;101022.69;4961074;28;20655;-80
2022/02/04 04:34:31;;;;;;;;;;;;;;;14.28;47.08;101024.31;4964561;28;19918;-81
2022/02/04 04:37:15;;;;;;;;;;;;;;;14.21;47.53;101011.19;4963566;28;19914;-81
2022/02/04 05:28:36;;;;;;;;;;;;;;;13.97;50.44;101030.94;4962412;28;19918;-81
2022/02/04 05:31:20;;;;;;;;;;;;;;;13.98;50.85;101029.00;4959373;28;19918;-81
2022/02/04 05:34:05;;;;;;;;;;;;;;;13.96;50.53;101028.56;4957883;28;19922;-81
2022/02/04 05:36:59;;;;;;;;;;;;;;;13.96;50.78;101028.56;4963615;28;19918;-81
2022/02/04 05:40:00;;;;;;;;;;;;;;;13.99;51.03;101034.16;4964698;28;19915;-82
2022/02/04 05:42:51;;;;;;;;;;;;;;;14.02;50.64;101028.03;4955803;28;19923;-81
2022/02/04 05:45:37;;;;;;;;;;;;;;;14.05;50.81;101026.56;4951839;28;20340;-81
2022/02/04 05:48:23;;;;;;;;;;;;;;;14.02;50.41;101021.75;4951632;28;19919;-81
2022/02/04 05:57:08;;;;;;;;;;;;;;;13.06;50.60;101022.41;4946722;28;20383;-84
2022/02/04 06:00:23;;;;;;;;;;;;;;;12.79;51.21;101027.13;4972829;28;19914;-85
2022/02/04 06:06:19;;;;;;;;;;;;;;;12.80;51.27;101030.63;4960227;28;19923;-85
2022/02/04 06:15:15;;;;;;;;;;;;;;;13.19;50.59;101029.66;4963557;28;19914;-84
2022/02/04 06:24:06;;;;;;;;;;;;;;;13.10;50.11;101037.03;4974516;28;19914;-84
2022/02/04 06:26:51;;;;;;;;;;;;;;;13.04;50.28;101038.31;4962606;28;19919;-84
2022/02/04 06:29:37;;;;;;;;;;;;;;;13.07;50.17;101032.22;4963540;28;19914;-84
2022/02/04 06:32:21;;;;;;;;;;;;;;;12.92;50.73;101028.06;4962949;28;19918;-83
2022/02/04 06:35:07;;;;;;;;;;;;;;;12.93;51.03;101042.50;4960787;28;19915;-83
2022/02/04 06:37:51;;;;;;;;;;;;;;;13.08;52.18;101039.28;4955074;28;19918;-83
2022/02/04 06:40:36;;;;;;;;;;;;;;;13.19;52.81;101041.38;4967879;28;20414;-83
2022/02/04 06:43:21;;;;;;;;;;;;;;;13.26;52.88;101049.06;4983206;28;19914;-83
2022/02/04 06:46:06;;;;;;;;;;;;;;;13.32;53.27;101045.03;4953122;29;19918;-83
2022/02/04 06:48:51;;;;;;;;;;;;;;;13.39;53.27;101044.53;4967198;28;19914;-83
2022/02/04 06:51:35;;;;;;;;;;;;;;;13.42;53.51;101041.94;4966245;28;19914;-83
2022/02/04 06:54:19;;;;;;;;;;;;;;;13.44;53.40;101033.44;4963130;28;19914;-82
2022/02/04 06:57:04;;;;;;;;;;;;;;;13.48;53.55;101043.38;4962071;28;20310;-82
2022/02/04 06:59:51;;;;;;;;;;;;;;;13.52;54.01;101044.34;4967811;28;19914;-83
2022/02/04 07:02:35;;;;;;;;;;;;;;;13.53;53.85;101043.22;4963731;28;19914;-83
2022/02/04 07:05:21;;;;;;;;;;;;;;;13.55;54.50;101046.44;4960879;28;19919;-84
2022/02/04 07:08:20;;;;;;;;;;;;;;;13.58;54.76;101037.56;4965873;28;19914;-83
2022/02/04 07:17:15;;;;;;;;;;;;;;;13.67;54.63;101048.44;4917127;28;1385078;-83
2022/02/04 07:20:00;;;;;;;;;;;;;;;13.68;54.74;101048.13;4962666;28;19914;-83
2022/02/04 07:22:45;;;;;;;;;;;;;;;13.69;54.89;101041.53;4966830;28;19914;-82
2022/02/04 07:25:29;;;;;;;;;;;;;;;13.69;55.03;101049.75;4963977;28;20380;-83
2022/02/04 07:28:14;;;;;;;;;;;;;;;13.71;54.95;101046.69;4969318;28;20358;-83
2022/02/04 07:31:00;;;;;;;;;;;;;;;13.74;55.03;101045.22;4967098;28;19919;-83
2022/02/04 07:33:50;;;;;;;;;;;;;;;13.67;53.08;101043.78;4951264;28;20329;-82
2022/02/04 07:42:42;;;;;;;;;;;;;;;13.62;53.33;101043.97;4982565;28;19918;-83
2022/02/04 07:45:26;;;;;;;;;;;;;;;13.70;53.95;101037.69;4984492;28;19914;-82
2022/02/04 07:48:11;;;;;;;;;;;;;;;13.64;52.64;101039.00;4984596;28;20310;-81
2022/02/04 07:50:56;;;;;;;;;;;;;;;13.50;50.91;101035.69;4983010;28;19914;-81
2022/02/04 07:53:40;;;;;;;;;;;;;;;13.42;50.82;101041.16;4986858;28;19914;-83
2022/02/04 07:56:25;;;;;;;;;;;;;;;13.38;51.08;101035.53;4979445;28;19914;-82
2022/02/04 07:59:10;;;;;;;;;;;;;;;13.26;51.09;101040.88;4979150;28;19914;-81
2022/02/04 08:01:55;;;;;;;;;;;;;;;13.22;51.27;101040.72;4985264;28;19914;-80
2022/02/04 08:04:41;;;;;;;;;;;;;;;13.28;51.36;101038.63;4976845;28;19918;-81
2022/02/04 08:07:30;;;;;;;;;;;;;;;13.24;51.76;101043.13;4968256;28;19914;-81
2022/02/04 08:13:33;;;;;;;;;;;;;;;13.03;52.41;101045.72;4972319;28;19914;-80
2022/02/04 08:17:00;;;;;;;;;;;;;;;12.94;52.95;101055.84;4965678;28;19915;-80
2022/02/04 08:31:19;;;;;;;;;;;;;;;13.07;54.49;101064.97;4970600;28;19914;-80
2022/02/04 08:46:40;;;;;;;;;;;;;;;13.07;52.58;101054.06;4966310;28;19914;-79
2022/02/04 08:49:23;;;;;;;;;;;;;;;13.31;53.07;101057.09;4959371;28;19918;-81
2022/02/04 08:55:05;;;;;;;;;;;;;;;13.23;52.24;101057.91;4960151;28;19918;-81
2022/02/04 09:00:50;;;;;;;;;;;;;;;13.22;53.82;101061.75;4957594;28;19918;-82
2022/02/04 09:06:25;;;;;;;;;;;;;;;13.21;54.36;101060.16;4956797;28;19918;-82
2022/02/04 09:09:15;;;;;;;;;;;;;;;13.29;54.91;101073.00;4975174;28;19914;-81
2022/02/04 09:12:24;;;;;;;;;;;;;;;13.38;54.52;101068.31;4957115;28;19915;-82
2022/02/04 09:19:02;;;;;;;;;;;;;;;13.28;52.50;101069.47;4963909;28;20016;-81
2022/02/04 09:21:48;;;;;;;;;;;;;;;13.13;52.23;101069.97;4973316;28;20382;-80
2022/02/04 09:24:30;;;;;;;;;;;;;;;13.03;52.16;101069.47;4969336;28;20332;-81
2022/02/04 09:27:14;;;;;;;;;;;;;;;13.17;51.68;101081.06;4970037;28;20322;-81
2022/02/04 09:29:59;;;;;;;;;;;;;;;13.00;52.46;101081.88;4964287;28;20302;-82
2022/02/04 09:32:43;;;;;;;;;;;;;;;12.85;52.77;101072.22;4966662;28;19914;-81
2022/02/04 09:35:28;;;;;;;;;;;;;;;12.99;52.34;101073.97;4972217;28;19915;-81
2022/02/04 09:38:13;;;;;;;;;;;;;;;13.18;51.62;101079.94;4984279;28;19914;-81
2022/02/04 09:40:57;;;;;;;;;;;;;;;13.00;52.84;101079.13;4965637;28;19914;-82
2022/02/04 09:43:42;;;;;;;;;;;;;;;13.11;52.48;101074.13;4967515;28;19925;-81
2022/02/04 09:46:29;;;;;;;;;;;;;;;13.07;52.52;101075.88;4962064;28;19922;-82
2022/02/04 09:49:24;;;;;;;;;;;;;;;12.98;52.88;101081.38;4970935;28;19914;-81
2022/02/04 10:14:01;;;;;;;;;;;;;;;12.77;53.16;101074.94;4959906;28;19914;-82
2022/02/04 10:22:27;;;;;;;;;;;;;;;12.67;52.31;101067.88;4950113;28;19919;-81
2022/02/04 10:25:12;;;;;;;;;;;;;;;12.71;52.25;101077.03;4954543;28;19918;-80
2022/02/04 10:27:56;;;;;;;;;;;;;;;12.68;52.73;101068.69;4962505;28;20375;-82
2022/02/04 10:30:41;;;;;;;;;;;;;;;12.75;52.47;101067.06;4954976;28;19918;-82
2022/02/04 10:33:25;;;;;;;;;;;;;;;12.62;52.94;101067.22;4947691;28;19914;-81
2022/02/04 10:36:10;;;;;;;;;;;;;;;12.58;52.97;101064.34;4948832;28;19918;-81
2022/02/04 10:38:54;;;;;;;;;;;;;;;12.57;52.85;101062.75;4952125;28;19914;-82
2022/02/04 10:41:41;;;;;;;;;;;;;;;12.60;52.87;101061.28;4947433;28;19915;-81
2022/02/04 10:44:30;;;;;;;;;;;;;;;12.77;53.07;101056.66;4952378;28;19922;-82
2022/02/04 10:47:43;;;;;;;;;;;;;;;12.79;52.91;101054.41;4960444;28;19918;-82
2022/02/04 10:59:35;;;;;;;;;;;;;;;12.73;53.32;101038.50;4973436;28;19914;-81
2022/02/04 11:02:35;;;;;;;;;;;;;;;12.74;53.23;101030.00;4980696;28;19914;-81
2022/02/04 11:05:30;;;;;;;;;;;;;;;13.05;52.55;101027.09;4980477;28;19918;-81
2022/02/04 11:48:01;;;;;;;;;;;;;;;13.15;51.38;100979.56;4972340;28;19914;-82
2022/02/04 11:51:14;;;;;;;;;;;;;;;13.02;51.55;100975.03;4980656;28;19914;-82
2022/02/04 11:57:13;;;;;;;;;;;;;;;13.12;51.37;100963.81;4980674;28;19914;-82
2022/02/04 11:59:59;;;;;;;;;;;;;;;13.41;50.51;100949.44;4980476;28;19898;-81
2022/02/04 12:02:53;;;;;;;;;;;;;;;13.38;50.38;100945.41;4958798;28;19923;-80
2022/02/04 12:05:46;;;;;;;;;;;;;;;13.25;50.78;100938.25;4956315;28;19923;-82
2022/02/04 12:08:31;;;;;;;;;;;;;;;13.13;50.97;100938.13;4966101;28;20367;-83
2022/02/04 12:11:18;;;;;;;;;;;;;;;13.16;50.98;100937.44;4960953;28;19914;-82
2022/02/04 12:14:09;;;;;;;;;;;;;;;13.11;51.04;100926.69;4960554;28;19919;-82
2022/02/04 12:17:01;;;;;;;;;;;;;;;13.27;51.15;100922.31;4954817;28;20411;-81
2022/02/04 12:19:52;;;;;;;;;;;;;;;13.22;50.67;100922.50;4957884;28;19914;-81
2022/02/04 12:22:57;;;;;;;;;;;;;;;13.15;50.76;100914.84;4959710;28;19914;-82
2022/02/04 12:25:55;;;;;;;;;;;;;;;13.19;50.91;100921.22;4956355;28;19918;-81
2022/02/04 12:28:48;;;;;;;;;;;;;;;13.95;48.47;100909.38;4957062;28;19915;-77
2022/02/04 12:31:40;;;;;;;;;;;;;;;13.67;48.46;100909.88;4957160;28;20371;-77
2022/02/04 12:34:24;;;;;;;;;;;;;;;13.45;49.57;100906.66;4952522;28;19918;-78
2022/02/04 12:37:09;;;;;;;;;;;;;;;13.24;50.44;100892.94;4956655;28;19914;-78
2022/02/04 12:39:53;;;;;;;;;;;;;;;13.15;50.53;100897.66;4954156;28;19918;-79
2022/02/04 12:42:38;;;;;;;;;;;;;;;13.47;49.99;100891.53;4949603;28;20379;-77
2022/02/04 12:45:22;;;;;;;;;;;;;;;13.66;49.20;100896.56;4956423;28;19918;-77
2022/02/04 12:48:07;;;;;;;;;;;;;;;13.48;49.74;100893.13;4958814;28;19915;-76
2022/02/04 12:50:53;;;;;;;;;;;;;;;13.52;49.71;100882.31;4956527;28;19914;-78
2022/02/04 12:53:41;;;;;;;;;;;;;;;13.78;48.68;100873.97;4959789;28;19913;-77
2022/02/04 12:56:42;;;;;;;;;;;;;;;13.55;48.98;100878.97;4953745;28;19915;-77
2022/02/04 13:08:16;;;;;;;;;;;;;;;14.40;47.24;100858.34;4958886;28;20379;-82
2022/02/04 13:11:03;;;;;;;;;;;;;;;14.95;45.87;100852.41;4965222;28;19913;-79
2022/02/04 13:13:49;;;;;;;;;;;;;;;16.05;43.73;100852.31;4966963;28;20379;-79
2022/02/04 13:16:35;;;;;;;;;;;;;;;16.25;42.82;100852.09;4978579;28;19914;-79
2022/02/04 13:19:19;;;;;;;;;;;;;;;15.07;44.94;100846.16;4983724;28;20294;-79
2022/02/04 13:22:04;;;;;;;;;;;;;;;14.25;47.27;100844.47;4979458;28;19918;-79
2022/02/04 13:25:05;;;;;;;;;;;;;;;15.54;44.56;100840.22;4982400;28;19922;-79
2022/02/04 13:27:59;;;;;;;;;;;;;;;17.40;40.11;100838.19;4978090;28;19914;-79
2022/02/04 13:31:01;;;;;;;;;;;;;;;15.73;43.64;100849.44;4978724;28;19914;-79
2022/02/04 13:33:46;;;;;;;;;;;;;;;15.01;45.90;100844.78;4981239;28;19914;-79
2022/02/04 13:36:35;;;;;;;;;;;;;;;15.30;46.04;100836.31;4977788;28;19914;-79
2022/02/04 13:42:14;;;;;;;;;;;;;;;20.59;35.04;100826.97;4982360;28;19914;-79
2022/02/04 13:45:16;;;;;;;;;;;;;;;18.76;37.45;100824.06;4979623;28;20307;-79
2022/02/04 13:48:11;;;;;;;;;;;;;;;17.45;39.48;100820.59;4981664;28;20326;-78
2022/02/04 13:51:25;;;;;;;;;;;;;;;18.24;38.68;100826.59;4979177;28;19914;-79
2022/02/04 13:57:27;;;;;;;;;;;;;;;19.26;36.55;100822.09;4979495;28;19914;-79
2022/02/04 14:03:19;;;;;;;;;;;;;;;16.86;41.38;100823.53;4977939;28;19914;-79
2022/02/04 14:06:15;;;;;;;;;;;;;;;15.11;45.31;100814.19;4977877;28;19922;-79
2022/02/04 14:09:15;;;;;;;;;;;;;;;14.45;47.34;100814.34;4981485;28;19921;-79
2022/02/04 14:12:12;;;;;;;;;;;;;;;14.29;48.00;100810.63;4976922;28;19977;-79
2022/02/04 14:14:58;;;;;;;;;;;;;;;14.02;48.57;100811.22;4979849;28;20302;-79
2022/02/04 14:17:42;;;;;;;;;;;;;;;14.22;48.33;100809.59;4978358;28;20287;-78
2022/02/04 14:20:26;;;;;;;;;;;;;;;13.68;49.47;100802.19;4977374;28;19914;-78
2022/02/04 14:23:11;;;;;;;;;;;;;;;13.49;50.32;100792.84;4981065;28;19914;-78
2022/02/04 14:26:01;;;;;;;;;;;;;;;13.51;50.01;100799.56;4978162;28;19918;-79
2022/02/04 14:28:56;;;;;;;;;;;;;;;13.04;51.50;100798.09;4977296;28;19914;-79
2022/02/04 15:01:50;;;;;;;;;;;;;;;12.11;55.07;100795.34;4967752;28;20315;-78
2022/02/04 15:07:30;;;;;;;;;;;;;;;12.03;55.76;100785.28;4960447;28;19915;-78
2022/02/04 15:10:27;;;;;;;;;;;;;;;12.07;56.10;100787.03;4965236;28;19918;-79
2022/02/04 15:13:14;;;;;;;;;;;;;;;12.02;56.28;100772.78;4962579;28;20291;-78
2022/02/04 15:16:06;;;;;;;;;;;;;;;11.99;56.79;100780.44;4963987;28;19918;-80
2022/02/04 15:18:52;;;;;;;;;;;;;;;11.94;56.16;100777.09;4959812;28;20368;-80
2022/02/04 15:21:37;;;;;;;;;;;;;;;11.89;56.18;100778.06;4964124;28;20518;-80
2022/02/04 15:24:21;;;;;;;;;;;;;;;11.89;56.62;100778.06;4960771;28;19918;-80
2022/02/04 15:27:06;;;;;;;;;;;;;;;11.85;57.13;100779.84;4969194;28;19914;-79
2022/02/04 15:29:52;;;;;;;;;;;;;;;11.83;57.15;100776.66;4971231;28;19914;-80
2022/02/04 15:32:37;;;;;;;;;;;;;;;11.72;57.71;100786.22;4958527;28;19914;-79
2022/02/04 15:35:22;;;;;;;;;;;;;;;11.77;57.63;100775.19;4956744;28;19914;-78
2022/02/04 15:38:08;;;;;;;;;;;;;;;11.85;57.39;100777.09;4958555;28;19918;-79
2022/02/04 15:40:53;;;;;;;;;;;;;;;11.87;58.30;100772.16;4953434;28;19914;-79
2022/02/04 15:43:38;;;;;;;;;;;;;;;11.85;57.96;100774.38;4941415;29;20283;-81
2022/02/04 15:49:27;;;;;;;;;;;;;;;11.71;58.80;100773.72;4958000;28;19914;-80
2022/02/04 16:03:52;;;;;;;;;;;;;;;11.26;60.27;100788.75;4947215;28;19915;-80
2022/02/04 16:06:36;;;;;;;;;;;;;;;11.18;60.86;100792.25;4940216;28;19919;-80
2022/02/04 16:09:22;;;;;;;;;;;;;;;11.13;60.97;100788.56;4945600;28;19915;-80
2022/02/04 16:12:18;;;;;;;;;;;;;;;11.18;61.07;100781.34;4948535;28;19915;-80
2022/02/04 16:15:17;;;;;;;;;;;;;;;11.17;61.31;100794.19;4940397;29;19915;-79
2022/02/04 16:18:08;;;;;;;;;;;;;;;11.09;61.50;100786.78;4942046;28;19914;-80
2022/02/04 16:21:21;;;;;;;;;;;;;;;11.05;61.67;100796.72;4946802;28;19914;-81
2022/02/04 16:27:08;;;;;;;;;;;;;;;10.89;62.02;100796.34;4950149;28;19914;-80
2022/02/04 16:29:53;;;;;;;;;;;;;;;10.63;63.21;100787.28;4959823;28;19914;-81
2022/02/04 16:32:37;;;;;;;;;;;;;;;10.85;62.21;100794.56;4963890;28;19914;-80
2022/02/04 16:35:22;;;;;;;;;;;;;;;10.86;62.12;100791.53;4961746;28;20395;-82
2022/02/04 16:38:07;;;;;;;;;;;;;;;11.18;63.37;100794.97;4951271;29;19914;-82
2022/02/04 16:40:53;;;;;;;;;;;;;;;11.43;62.53;100799.66;4963486;28;19914;-81
2022/02/04 16:43:39;;;;;;;;;;;;;;;11.68;61.58;100801.63;4953452;28;19915;-81
2022/02/04 16:46:24;;;;;;;;;;;;;;;11.93;60.62;100805.50;4959084;28;20275;-81
2022/02/04 16:49:08;;;;;;;;;;;;;;;12.14;60.48;100808.34;4964108;28;19914;-81
2022/02/04 16:51:53;;;;;;;;;;;;;;;12.30;59.86;100804.78;4962038;28;19914;-81
2022/02/04 16:54:38;;;;;;;;;;;;;;;12.36;58.98;100799.94;4959191;28;19914;-81
2022/02/04 16:57:24;;;;;;;;;;;;;;;12.56;59.05;100807.44;4963892;28;20291;-81
2022/02/04 17:00:26;;;;;;;;;;;;;;;12.61;58.81;100795.53;4961781;28;19914;-80
2022/02/04 17:03:11;;;;;;;;;;;;;;;12.70;58.25;100796.31;4958426;28;19914;-80
2022/02/04 17:06:00;;;;;;;;;;;;;;;12.80;57.75;100804.94;4960029;28;19919;-81
2022/02/04 17:08:53;;;;;;;;;;;;;;;12.91;57.33;100805.34;4951808;28;19915;-80
2022/02/04 17:11:41;;;;;;;;;;;;;;;12.94;56.85;100801.19;4954483;28;19913;-81
2022/02/04 17:14:26;;;;;;;;;;;;;;;12.99;56.81;100811.91;4955995;28;20302;-81
2022/02/04 17:17:11;;;;;;;;;;;;;;;13.03;56.66;100801.94;4952939;28;19914;-80
2022/02/04 17:20:06;;;;;;;;;;;;;;;13.05;56.48;100805.16;4959836;28;19930;-81
2022/02/04 17:22:51;;;;;;;;;;;;;;;12.98;56.72;100799.41;4966050;28;19914;-80
2022/02/04 17:25:38;;;;;;;;;;;;;;;13.16;56.89;100812.66;4964386;28;19918;-79
2022/02/04 17:28:26;;;;;;;;;;;;;;;13.18;56.32;100810.41;4960554;28;19914;-79
2022/02/04 17:31:10;;;;;;;;;;;;;;;13.25;56.62;100809.88;4961698;28;19914;-79
2022/02/04 17:33:55;;;;;;;;;;;;;;;13.34;56.51;100805.16;4967375;28;19918;-80
2022/02/04 17:36:39;;;;;;;;;;;;;;;13.36;55.96;100804.84;4960423;28;19913;-81
2022/02/04 17:39:25;;;;;;;;;;;;;;;13.30;55.95;100803.44;4971491;28;19914;-80
2022/02/04 17:42:10;;;;;;;;;;;;;;;13.34;56.13;100810.63;4956523;28;19914;-81
2022/02/04 17:44:55;;;;;;;;;;;;;;;13.47;56.23;100806.03;4953551;28;19922;-80
2022/02/04 17:47:40;;;;;;;;;;;;;;;13.51;56.77;100813.22;4964527;28;19914;-81
2022/02/04 17:50:31;;;;;;;;;;;;;;;13.50;56.37;100810.84;4973152;28;19918;-81
2022/02/04 17:53:23;;;;;;;;;;;;;;;13.49;55.72;100818.25;4949079;28;19918;-80
2022/02/04 17:56:24;;;;;;;;;;;;;;;13.54;55.61;100817.25;4951588;28;19922;-81
2022/02/04 18:02:38;;;;;;;;;;;;;;;13.56;56.11;100817.72;4959037;28;20390;-82
2022/02/04 18:08:01;;;;;;;;;;;;;;;13.53;55.96;100827.38;4950090;28;20295;-80
2022/02/04 18:10:46;;;;;;;;;;;;;;;13.46;55.36;100829.81;4951084;28;20299;-80
2022/02/04 18:13:31;;;;;;;;;;;;;;;13.46;56.01;100821.63;4960284;28;19915;-82
2022/02/04 18:16:35;;;;;;;;;;;;;;;13.48;56.04;100824.03;4954738;28;19914;-82
2022/02/04 18:19:20;;;;;;;;;;;;;;;13.41;55.72;100824.53;4949853;28;19915;-80
2022/02/04 18:22:04;;;;;;;;;;;;;;;13.41;56.52;100830.00;4960307;28;19914;-80
2022/02/04 18:24:49;;;;;;;;;;;;;;;13.43;56.59;100825.03;4961381;28;20299;-81
2022/02/04 18:27:33;;;;;;;;;;;;;;;13.34;55.93;100826.22;4957238;28;19937;-81
2022/02/04 18:30:18;;;;;;;;;;;;;;;13.36;55.72;100811.06;4961747;28;19914;-81
2022/02/04 18:33:03;;;;;;;;;;;;;;;13.30;55.92;100817.88;4965235;28;20295;-81
2022/02/04 18:35:57;;;;;;;;;;;;;;;13.34;56.14;100809.81;4955856;28;19914;-83
2022/02/04 18:38:50;;;;;;;;;;;;;;;13.61;56.54;100818.28;4965692;28;19914;-80
2022/02/04 18:44:30;;;;;;;;;;;;;;;13.80;56.78;100814.31;4960083;28;19929;-85
2022/02/04 18:50:49;;;;;;;;;;;;;;;13.95;56.90;100817.25;4967926;28;19922;-83
2022/02/04 18:59:12;;;;;;;;;;;;;;;13.97;56.61;100819.63;4945613;29;19918;-82
2022/02/04 19:01:57;;;;;;;;;;;;;;;13.79;55.97;100812.72;4959786;28;19914;-81
2022/02/04 19:04:52;;;;;;;;;;;;;;;13.85;56.99;100806.72;4958080;28;19918;-81
2022/02/04 19:10:24;;;;;;;;;;;;;;;13.92;54.97;100819.81;4958832;28;19915;-82
2022/02/04 19:13:25;;;;;;;;;;;;;;;13.91;55.94;100816.31;4955115;28;19922;-81
2022/02/04 19:16:39;;;;;;;;;;;;;;;13.97;56.99;100811.41;4962463;28;19918;-80
2022/02/04 19:19:35;;;;;;;;;;;;;;;13.95;55.92;100816.44;4958316;28;19926;-79
2022/02/04 19:22:56;;;;;;;;;;;;;;;13.94;55.65;100821.09;4962570;28;20302;-80
2022/02/04 19:25:35;;;;;;;;;;;;;;;13.82;55.26;100817.50;4960662;28;19919;-80
2022/02/04 19:28:22;;;;;;;;;;;;;;;13.76;55.14;100818.84;4965815;28;19914;-80
2022/02/04 19:31:07;;;;;;;;;;;;;;;13.73;54.66;100820.31;4964347;28;19914;-78
2022/02/04 19:33:51;;;;;;;;;;;;;;;13.89;55.13;100820.50;4961721;28;20389;-80
2022/02/04 19:36:37;;;;;;;;;;;;;;;14.01;53.87;100817.84;4960389;28;20387;-80
2022/02/04 19:39:22;;;;;;;;;;;;;;;13.97;53.65;100819.63;4963747;28;19914;-79
2022/02/04 19:45:16;;;;;;;;;;;;;;;14.31;56.94;100813.03;4959901;28;19918;-80
2022/02/04 19:48:04;;;;;;;;;;;;;;;14.42;56.71;100812.31;4955199;28;19914;-82
2022/02/04 19:51:19;;;;;;;;;;;;;;;14.40;54.69;100816.50;4960759;28;19914;-81
2022/02/04 19:54:27;;;;;;;;;;;;;;;14.35;53.93;100809.28;4944998;29;19915;-80
2022/02/04 20:27:06;;;;;;;;;;;;;;;14.24;52.79;100848.34;4952774;28;20303;-80
2022/02/04 20:29:51;;;;;;;;;;;;;;;14.11;52.65;100842.03;4952643;28;20344;-79
2022/02/04 20:32:35;;;;;;;;;;;;;;;13.98;50.88;100848.56;4949320;28;19918;-80
2022/02/04 20:35:20;;;;;;;;;;;;;;;13.63;52.38;100845.28;4946062;28;19918;-79
2022/02/04 20:38:05;;;;;;;;;;;;;;;13.64;52.43;100844.97;4943851;28;19918;-80
2022/02/04 20:40:58;;;;;;;;;;;;;;;13.73;52.81;100844.09;4945856;28;19919;-80
2022/02/04 20:43:43;;;;;;;;;;;;;;;13.86;52.36;100835.66;4947880;28;19918;-80
2022/02/04 20:46:27;;;;;;;;;;;;;;;13.91;52.36;100838.19;4942395;28;20474;-80
2022/02/04 20:49:12;;;;;;;;;;;;;;;13.99;53.18;100834.56;4945752;28;20394;-79
2022/02/04 20:51:58;;;;;;;;;;;;;;;14.13;53.82;100837.00;4945359;28;19918;-79
2022/02/04 20:54:42;;;;;;;;;;;;;;;14.20;53.54;100834.53;4947084;28;19922;-81
2022/02/04 20:57:27;;;;;;;;;;;;;;;14.25;52.96;100837.06;4952249;28;20327;-80
2022/02/04 21:00:15;;;;;;;;;;;;;;;14.26;53.42;100838.66;4954260;28;19918;-80
2022/02/04 21:03:09;;;;;;;;;;;;;;;14.27;53.59;100834.81;4958286;28;19918;-82
2022/02/04 21:05:58;;;;;;;;;;;;;;;14.31;53.50;100829.44;4952648;28;19949;-81
2022/02/04 21:09:03;;;;;;;;;;;;;;;14.29;53.25;100824.31;4956279;28;19918;-81
2022/02/04 21:17:42;;;;;;;;;;;;;;;14.37;53.15;100831.69;4950878;28;19925;-80
2022/02/04 21:20:27;;;;;;;;;;;;;;;14.41;53.47;100834.53;4946698;28;19919;-81
2022/02/04 21:23:11;;;;;;;;;;;;;;;14.45;53.20;100833.50;4952512;28;19930;-81
2022/02/04 21:25:59;;;;;;;;;;;;;;;14.48;53.64;100840.22;4934141;29;19926;-81
2022/02/04 21:28:46;;;;;;;;;;;;;;;14.49;53.45;100839.09;4951767;28;19918;-80